sensor_id;sensor_type;location;lat;lon;timestamp;P1;durP1;ratioP1;P2;durP2;ratioP2
20545;SDS011;10431;50.228;9.112;2023-04-03T08:21:07;5.30;;;1.80;;
20545;SDS011;10431;50.228;9.112;2023-04-03T08:23:35;5.65;;;1.90;;
20545;SDS011;10431;50.228;9.112;2023-04-03T08:26:14;3.70;;;1.77;;
20545;SDS011;10431;50.228;9.112;2023-04-03T08:28:42;7.40;;;2.10;;
20545;SDS011;10431;50.228;9.112;2023-04-03T08:31:10;5.82;;;1.85;;
20545;SDS011;10431;50.228;9.112;2023-04-03T08:33:39;4.63;;;1.60;;
20545;SDS011;10431;50.228;9.112;2023-04-03T08:36:16;4.72;;;1.67;;
20545;SDS011;10431;50.228;9.112;2023-04-03T08:38:50;5.18;;;1.92;;
20545;SDS011;10431;50.228;9.112;2023-04-03T08:43:58;3.15;;;1.80;;
20545;SDS011;10431;50.228;9.112;2023-04-03T08:46:53;4.65;;;1.52;;
20545;SDS011;10431;50.228;9.112;2023-04-03T08:49:43;4.57;;;1.80;;
20545;SDS011;10431;50.228;9.112;2023-04-03T08:54:27;5.20;;;1.70;;
20545;SDS011;10431;50.228;9.112;2023-04-03T10:10:19;13.30;;;2.10;;
20545;SDS011;10431;50.228;9.112;2023-04-03T10:15:41;5.95;;;3.17;;
20545;SDS011;10431;50.228;9.112;2023-04-03T10:20:49;6.22;;;2.95;;
20545;SDS011;10431;50.228;9.112;2023-04-03T10:23:28;12.98;;;2.40;;
20545;SDS011;10431;50.228;9.112;2023-04-03T10:26:29;5.75;;;2.00;;
20545;SDS011;10431;50.228;9.112;2023-04-03T10:29:04;6.35;;;2.20;;
20545;SDS011;10431;50.228;9.112;2023-04-03T10:31:44;7.68;;;1.80;;
20545;SDS011;10431;50.228;9.112;2023-04-03T10:34:32;2.28;;;1.55;;
20545;SDS011;10431;50.228;9.112;2023-04-03T10:39:46;5.35;;;1.80;;
20545;SDS011;10431;50.228;9.112;2023-04-03T10:45:06;3.22;;;1.48;;
20545;SDS011;10431;50.228;9.112;2023-04-03T10:58:44;3.35;;;1.80;;
20545;SDS011;10431;50.228;9.112;2023-04-03T11:01:16;6.18;;;1.95;;
20545;SDS011;10431;50.228;9.112;2023-04-03T11:03:58;7.03;;;3.00;;
20545;SDS011;10431;50.228;9.112;2023-04-03T11:06:28;9.73;;;3.40;;
20545;SDS011;10431;50.228;9.112;2023-04-03T11:09:07;9.10;;;3.70;;
20545;SDS011;10431;50.228;9.112;2023-04-03T11:11:44;9.02;;;4.80;;
20545;SDS011;10431;50.228;9.112;2023-04-03T11:14:25;10.98;;;6.25;;
20545;SDS011;10431;50.228;9.112;2023-04-03T11:20:00;29.38;;;12.13;;
20545;SDS011;10431;50.228;9.112;2023-04-03T11:22:45;32.38;;;15.20;;
20545;SDS011;10431;50.228;9.112;2023-04-03T11:25:22;41.60;;;16.38;;
20545;SDS011;10431;50.228;9.112;2023-04-03T11:27:56;41.47;;;18.98;;
20545;SDS011;10431;50.228;9.112;2023-04-03T11:30:33;42.42;;;21.42;;
20545;SDS011;10431;50.228;9.112;2023-04-03T11:33:19;48.03;;;21.90;;
20545;SDS011;10431;50.228;9.112;2023-04-03T11:35:58;46.55;;;23.17;;
20545;SDS011;10431;50.228;9.112;2023-04-03T11:38:49;48.85;;;22.85;;
20545;SDS011;10431;50.228;9.112;2023-04-03T11:41:38;44.03;;;22.27;;
20545;SDS011;10431;50.228;9.112;2023-04-03T11:44:05;45.45;;;22.17;;
20545;SDS011;10431;50.228;9.112;2023-04-03T11:46:55;42.83;;;21.63;;
20545;SDS011;10431;50.228;9.112;2023-04-03T12:05:49;48.33;;;20.08;;
20545;SDS011;10431;50.228;9.112;2023-04-03T12:08:24;42.83;;;18.20;;
20545;SDS011;10431;50.228;9.112;2023-04-03T12:14:22;36.25;;;18.63;;
20545;SDS011;10431;50.228;9.112;2023-04-03T12:16:26;35.15;;;18.13;;
20545;SDS011;10431;50.228;9.112;2023-04-03T12:24:33;36.65;;;18.35;;
20545;SDS011;10431;50.228;9.112;2023-04-03T12:29:28;34.38;;;18.02;;
20545;SDS011;10431;50.228;9.112;2023-04-03T12:32:05;37.88;;;19.27;;
20545;SDS011;10431;50.228;9.112;2023-04-03T12:43:09;28.85;;;16.65;;
20545;SDS011;10431;50.228;9.112;2023-04-03T12:48:34;34.47;;;17.97;;
20545;SDS011;10431;50.228;9.112;2023-04-03T12:51:05;30.63;;;17.88;;
20545;SDS011;10431;50.228;9.112;2023-04-03T12:53:33;30.83;;;17.50;;
20545;SDS011;10431;50.228;9.112;2023-04-03T12:58:54;29.33;;;16.70;;
20545;SDS011;10431;50.228;9.112;2023-04-03T13:01:23;28.57;;;16.50;;
20545;SDS011;10431;50.228;9.112;2023-04-03T13:03:55;28.23;;;16.33;;
20545;SDS011;10431;50.228;9.112;2023-04-03T13:06:24;29.00;;;17.08;;
20545;SDS011;10431;50.228;9.112;2023-04-03T13:08:57;29.13;;;16.92;;
20545;SDS011;10431;50.228;9.112;2023-04-03T13:11:27;27.80;;;15.85;;
20545;SDS011;10431;50.228;9.112;2023-04-03T13:14:04;27.55;;;15.75;;
20545;SDS011;10431;50.228;9.112;2023-04-03T13:16:40;25.23;;;14.82;;
20545;SDS011;10431;50.228;9.112;2023-04-03T13:19:16;26.95;;;15.50;;
20545;SDS011;10431;50.228;9.112;2023-04-03T13:21:43;25.33;;;15.82;;
20545;SDS011;10431;50.228;9.112;2023-04-03T13:24:11;26.08;;;14.73;;
20545;SDS011;10431;50.228;9.112;2023-04-03T13:26:38;28.02;;;14.68;;
20545;SDS011;10431;50.228;9.112;2023-04-03T13:29:05;26.38;;;14.55;;
20545;SDS011;10431;50.228;9.112;2023-04-03T13:31:42;25.17;;;14.60;;
20545;SDS011;10431;50.228;9.112;2023-04-03T13:36:45;24.42;;;14.55;;
20545;SDS011;10431;50.228;9.112;2023-04-03T13:39:25;22.85;;;13.27;;
20545;SDS011;10431;50.228;9.112;2023-04-03T13:41:56;24.63;;;14.25;;
20545;SDS011;10431;50.228;9.112;2023-04-03T13:44:26;23.77;;;13.50;;
20545;SDS011;10431;50.228;9.112;2023-04-03T13:46:56;22.85;;;13.48;;
20545;SDS011;10431;50.228;9.112;2023-04-03T13:49:30;20.40;;;13.20;;
20545;SDS011;10431;50.228;9.112;2023-04-03T13:51:59;21.95;;;13.57;;
20545;SDS011;10431;50.228;9.112;2023-04-03T13:54:32;22.65;;;13.80;;
20545;SDS011;10431;50.228;9.112;2023-04-03T13:57:01;22.42;;;13.05;;
20545;SDS011;10431;50.228;9.112;2023-04-03T13:59:32;23.70;;;12.27;;
20545;SDS011;10431;50.228;9.112;2023-04-03T14:04:28;21.75;;;11.25;;
20545;SDS011;10431;50.228;9.112;2023-04-03T14:06:56;18.95;;;11.15;;
20545;SDS011;10431;50.228;9.112;2023-04-03T14:09:24;18.45;;;10.68;;
20545;SDS011;10431;50.228;9.112;2023-04-03T14:11:53;18.90;;;10.40;;
20545;SDS011;10431;50.228;9.112;2023-04-03T14:14:24;17.77;;;10.20;;
20545;SDS011;10431;50.228;9.112;2023-04-03T14:16:54;16.20;;;9.95;;
20545;SDS011;10431;50.228;9.112;2023-04-03T14:19:28;15.73;;;9.30;;
20545;SDS011;10431;50.228;9.112;2023-04-03T14:21:56;15.20;;;8.60;;
20545;SDS011;10431;50.228;9.112;2023-04-03T14:24:22;13.82;;;8.27;;
20545;SDS011;10431;50.228;9.112;2023-04-03T14:26:50;15.23;;;7.88;;
20545;SDS011;10431;50.228;9.112;2023-04-03T14:29:18;12.73;;;8.02;;
20545;SDS011;10431;50.228;9.112;2023-04-03T14:31:46;11.45;;;7.15;;
20545;SDS011;10431;50.228;9.112;2023-04-03T14:34:13;12.43;;;7.55;;
20545;SDS011;10431;50.228;9.112;2023-04-03T14:36:41;11.00;;;7.07;;
20545;SDS011;10431;50.228;9.112;2023-04-03T14:39:10;9.70;;;6.43;;
20545;SDS011;10431;50.228;9.112;2023-04-03T14:41:43;10.65;;;6.47;;
20545;SDS011;10431;50.228;9.112;2023-04-03T14:44:10;11.75;;;6.93;;
20545;SDS011;10431;50.228;9.112;2023-04-03T14:46:38;12.18;;;6.80;;
20545;SDS011;10431;50.228;9.112;2023-04-03T14:49:19;10.63;;;6.57;;
20545;SDS011;10431;50.228;9.112;2023-04-03T14:51:47;13.45;;;7.22;;
20545;SDS011;10431;50.228;9.112;2023-04-03T14:54:14;9.98;;;4.30;;
20545;SDS011;10431;50.228;9.112;2023-04-03T14:56:42;9.80;;;5.30;;
20545;SDS011;10431;50.228;9.112;2023-04-03T14:59:11;11.23;;;5.18;;
20545;SDS011;10431;50.228;9.112;2023-04-03T15:01:39;8.82;;;5.20;;
20545;SDS011;10431;50.228;9.112;2023-04-03T15:04:15;12.80;;;5.38;;
20545;SDS011;10431;50.228;9.112;2023-04-03T15:06:46;9.52;;;5.30;;
20545;SDS011;10431;50.228;9.112;2023-04-03T15:09:20;8.00;;;5.35;;
20545;SDS011;10431;50.228;9.112;2023-04-03T15:11:49;9.85;;;5.60;;
20545;SDS011;10431;50.228;9.112;2023-04-03T15:14:16;8.07;;;4.97;;
20545;SDS011;10431;50.228;9.112;2023-04-03T15:16:43;9.23;;;5.53;;
20545;SDS011;10431;50.228;9.112;2023-04-03T15:19:10;9.00;;;5.15;;
20545;SDS011;10431;50.228;9.112;2023-04-03T15:21:37;11.27;;;5.43;;
20545;SDS011;10431;50.228;9.112;2023-04-03T15:24:04;11.10;;;5.65;;
20545;SDS011;10431;50.228;9.112;2023-04-03T15:26:31;8.98;;;5.03;;
20545;SDS011;10431;50.228;9.112;2023-04-03T15:28:58;10.73;;;5.03;;
20545;SDS011;10431;50.228;9.112;2023-04-03T15:31:24;8.25;;;5.63;;
20545;SDS011;10431;50.228;9.112;2023-04-03T15:33:51;11.30;;;5.15;;
20545;SDS011;10431;50.228;9.112;2023-04-03T15:36:17;8.88;;;4.72;;
20545;SDS011;10431;50.228;9.112;2023-04-03T15:38:43;10.02;;;5.88;;
20545;SDS011;10431;50.228;9.112;2023-04-03T15:41:09;8.80;;;5.07;;
20545;SDS011;10431;50.228;9.112;2023-04-03T15:43:36;12.48;;;5.28;;
20545;SDS011;10431;50.228;9.112;2023-04-03T15:46:02;10.65;;;5.25;;
20545;SDS011;10431;50.228;9.112;2023-04-03T15:48:28;12.48;;;5.15;;
20545;SDS011;10431;50.228;9.112;2023-04-03T15:50:55;7.63;;;4.88;;
20545;SDS011;10431;50.228;9.112;2023-04-03T15:53:21;8.10;;;4.93;;
20545;SDS011;10431;50.228;9.112;2023-04-03T15:55:47;7.10;;;5.03;;
20545;SDS011;10431;50.228;9.112;2023-04-03T15:58:14;10.38;;;5.10;;
20545;SDS011;10431;50.228;9.112;2023-04-03T16:00:40;8.45;;;5.15;;
20545;SDS011;10431;50.228;9.112;2023-04-03T16:03:11;9.52;;;5.63;;
20545;SDS011;10431;50.228;9.112;2023-04-03T16:05:40;9.02;;;5.40;;
20545;SDS011;10431;50.228;9.112;2023-04-03T16:08:07;12.00;;;5.55;;
20545;SDS011;10431;50.228;9.112;2023-04-03T16:10:37;7.60;;;4.90;;
20545;SDS011;10431;50.228;9.112;2023-04-03T16:13:03;9.27;;;5.50;;
20545;SDS011;10431;50.228;9.112;2023-04-03T16:15:30;9.43;;;4.75;;
20545;SDS011;10431;50.228;9.112;2023-04-03T16:17:57;11.45;;;5.20;;
20545;SDS011;10431;50.228;9.112;2023-04-03T16:20:24;11.43;;;4.72;;
20545;SDS011;10431;50.228;9.112;2023-04-03T16:22:51;13.82;;;5.10;;
20545;SDS011;10431;50.228;9.112;2023-04-03T16:25:18;8.70;;;4.63;;
20545;SDS011;10431;50.228;9.112;2023-04-03T16:27:44;12.25;;;5.22;;
20545;SDS011;10431;50.228;9.112;2023-04-03T16:30:11;21.05;;;4.85;;
20545;SDS011;10431;50.228;9.112;2023-04-03T16:32:37;14.73;;;4.90;;
20545;SDS011;10431;50.228;9.112;2023-04-03T16:35:04;10.95;;;4.85;;
20545;SDS011;10431;50.228;9.112;2023-04-03T16:37:31;12.05;;;4.80;;
20545;SDS011;10431;50.228;9.112;2023-04-03T16:39:57;14.40;;;4.90;;
20545;SDS011;10431;50.228;9.112;2023-04-03T16:42:26;93.22;;;8.00;;
20545;SDS011;10431;50.228;9.112;2023-04-03T16:44:52;56.80;;;6.10;;
20545;SDS011;10431;50.228;9.112;2023-04-03T16:47:19;51.10;;;6.45;;
20545;SDS011;10431;50.228;9.112;2023-04-03T16:49:45;16.13;;;4.07;;
20545;SDS011;10431;50.228;9.112;2023-04-03T16:52:12;19.20;;;4.55;;
20545;SDS011;10431;50.228;9.112;2023-04-03T16:54:38;21.15;;;5.03;;
20545;SDS011;10431;50.228;9.112;2023-04-03T16:57:05;22.02;;;4.55;;
20545;SDS011;10431;50.228;9.112;2023-04-03T16:59:31;31.30;;;4.90;;
20545;SDS011;10431;50.228;9.112;2023-04-03T17:01:57;48.75;;;5.43;;
20545;SDS011;10431;50.228;9.112;2023-04-03T17:04:24;20.88;;;4.80;;
20545;SDS011;10431;50.228;9.112;2023-04-03T17:06:50;22.83;;;4.13;;
20545;SDS011;10431;50.228;9.112;2023-04-03T17:09:18;12.05;;;4.43;;
20545;SDS011;10431;50.228;9.112;2023-04-03T17:11:46;14.60;;;3.95;;
20545;SDS011;10431;50.228;9.112;2023-04-03T17:14:12;12.70;;;3.97;;
20545;SDS011;10431;50.228;9.112;2023-04-03T17:16:38;10.48;;;3.90;;
20545;SDS011;10431;50.228;9.112;2023-04-03T17:19:05;7.22;;;2.47;;
20545;SDS011;10431;50.228;9.112;2023-04-03T17:21:32;4.13;;;2.30;;
20545;SDS011;10431;50.228;9.112;2023-04-03T17:24:00;8.82;;;2.15;;
20545;SDS011;10431;50.228;9.112;2023-04-03T17:26:28;6.70;;;2.17;;
20545;SDS011;10431;50.228;9.112;2023-04-03T17:28:55;3.65;;;2.10;;
20545;SDS011;10431;50.228;9.112;2023-04-03T17:31:21;6.25;;;2.28;;
20545;SDS011;10431;50.228;9.112;2023-04-03T17:33:48;4.65;;;2.22;;
20545;SDS011;10431;50.228;9.112;2023-04-03T17:36:14;3.92;;;2.05;;
20545;SDS011;10431;50.228;9.112;2023-04-03T17:38:40;5.35;;;2.42;;
20545;SDS011;10431;50.228;9.112;2023-04-03T17:41:07;5.30;;;1.92;;
20545;SDS011;10431;50.228;9.112;2023-04-03T17:43:34;7.30;;;3.05;;
20545;SDS011;10431;50.228;9.112;2023-04-03T17:46:01;6.22;;;2.47;;
20545;SDS011;10431;50.228;9.112;2023-04-03T17:48:33;5.88;;;2.40;;
20545;SDS011;10431;50.228;9.112;2023-04-03T17:51:05;6.90;;;3.03;;
20545;SDS011;10431;50.228;9.112;2023-04-03T17:53:36;4.45;;;2.33;;
20545;SDS011;10431;50.228;9.112;2023-04-03T17:56:09;5.05;;;1.92;;
20545;SDS011;10431;50.228;9.112;2023-04-03T17:58:37;3.85;;;2.35;;
20545;SDS011;10431;50.228;9.112;2023-04-03T18:01:07;4.40;;;2.30;;
20545;SDS011;10431;50.228;9.112;2023-04-03T18:03:34;5.47;;;2.40;;
20545;SDS011;10431;50.228;9.112;2023-04-03T18:06:07;5.75;;;2.40;;
20545;SDS011;10431;50.228;9.112;2023-04-03T18:08:37;4.03;;;2.78;;
20545;SDS011;10431;50.228;9.112;2023-04-03T18:11:07;4.78;;;2.20;;
20545;SDS011;10431;50.228;9.112;2023-04-03T18:13:33;6.50;;;2.60;;
20545;SDS011;10431;50.228;9.112;2023-04-03T18:16:03;5.28;;;3.00;;
20545;SDS011;10431;50.228;9.112;2023-04-03T18:18:31;4.40;;;2.75;;
20545;SDS011;10431;50.228;9.112;2023-04-03T18:20:57;5.25;;;2.67;;
20545;SDS011;10431;50.228;9.112;2023-04-03T18:23:24;3.63;;;2.60;;
20545;SDS011;10431;50.228;9.112;2023-04-03T18:25:52;4.63;;;2.42;;
20545;SDS011;10431;50.228;9.112;2023-04-03T18:28:19;5.68;;;2.72;;
20545;SDS011;10431;50.228;9.112;2023-04-03T18:30:45;5.95;;;2.90;;
20545;SDS011;10431;50.228;9.112;2023-04-03T18:33:11;4.72;;;2.67;;
20545;SDS011;10431;50.228;9.112;2023-04-03T18:35:38;7.90;;;2.60;;
20545;SDS011;10431;50.228;9.112;2023-04-03T18:38:04;5.65;;;2.65;;
20545;SDS011;10431;50.228;9.112;2023-04-03T18:40:31;5.60;;;2.85;;
20545;SDS011;10431;50.228;9.112;2023-04-03T18:42:58;9.13;;;2.70;;
20545;SDS011;10431;50.228;9.112;2023-04-03T18:45:26;9.85;;;3.17;;
20545;SDS011;10431;50.228;9.112;2023-04-03T18:47:53;7.78;;;2.58;;
20545;SDS011;10431;50.228;9.112;2023-04-03T18:50:21;13.70;;;2.78;;
20545;SDS011;10431;50.228;9.112;2023-04-03T18:52:47;15.50;;;2.97;;
20545;SDS011;10431;50.228;9.112;2023-04-03T18:55:16;13.27;;;2.88;;
20545;SDS011;10431;50.228;9.112;2023-04-03T18:57:45;16.17;;;3.05;;
20545;SDS011;10431;50.228;9.112;2023-04-03T19:00:12;15.77;;;2.80;;
20545;SDS011;10431;50.228;9.112;2023-04-03T19:02:39;8.52;;;3.15;;
20545;SDS011;10431;50.228;9.112;2023-04-03T19:05:06;13.38;;;3.33;;
20545;SDS011;10431;50.228;9.112;2023-04-03T19:07:35;15.80;;;2.75;;
20545;SDS011;10431;50.228;9.112;2023-04-03T19:10:02;7.22;;;2.63;;
20545;SDS011;10431;50.228;9.112;2023-04-03T19:12:28;6.70;;;2.75;;
20545;SDS011;10431;50.228;9.112;2023-04-03T19:14:54;8.73;;;2.58;;
20545;SDS011;10431;50.228;9.112;2023-04-03T19:17:20;12.43;;;2.83;;
20545;SDS011;10431;50.228;9.112;2023-04-03T19:19:46;9.95;;;2.20;;
20545;SDS011;10431;50.228;9.112;2023-04-03T19:22:13;11.15;;;2.67;;
20545;SDS011;10431;50.228;9.112;2023-04-03T19:24:39;11.23;;;2.78;;
20545;SDS011;10431;50.228;9.112;2023-04-03T19:27:05;10.75;;;2.60;;
20545;SDS011;10431;50.228;9.112;2023-04-03T19:29:31;4.93;;;2.40;;
20545;SDS011;10431;50.228;9.112;2023-04-03T19:31:57;8.60;;;2.40;;
20545;SDS011;10431;50.228;9.112;2023-04-03T19:34:24;8.15;;;2.70;;
20545;SDS011;10431;50.228;9.112;2023-04-03T19:36:51;5.97;;;2.53;;
20545;SDS011;10431;50.228;9.112;2023-04-03T19:39:17;4.93;;;2.72;;
20545;SDS011;10431;50.228;9.112;2023-04-03T19:41:43;8.30;;;2.30;;
20545;SDS011;10431;50.228;9.112;2023-04-03T19:44:10;8.20;;;2.53;;
20545;SDS011;10431;50.228;9.112;2023-04-03T19:46:37;10.48;;;2.42;;
20545;SDS011;10431;50.228;9.112;2023-04-03T19:49:03;10.55;;;2.65;;
20545;SDS011;10431;50.228;9.112;2023-04-03T19:51:30;5.57;;;2.58;;
20545;SDS011;10431;50.228;9.112;2023-04-03T19:53:56;6.88;;;2.58;;
20545;SDS011;10431;50.228;9.112;2023-04-03T19:56:22;7.32;;;2.03;;
20545;SDS011;10431;50.228;9.112;2023-04-03T19:58:48;12.63;;;2.60;;
20545;SDS011;10431;50.228;9.112;2023-04-03T20:01:21;6.30;;;2.30;;
20545;SDS011;10431;50.228;9.112;2023-04-03T20:03:49;7.63;;;2.47;;
20545;SDS011;10431;50.228;9.112;2023-04-03T20:06:15;7.38;;;2.47;;
20545;SDS011;10431;50.228;9.112;2023-04-03T20:08:41;6.80;;;2.40;;
20545;SDS011;10431;50.228;9.112;2023-04-03T20:11:08;4.80;;;2.20;;
20545;SDS011;10431;50.228;9.112;2023-04-03T20:13:35;6.38;;;2.60;;
20545;SDS011;10431;50.228;9.112;2023-04-03T20:16:04;7.80;;;2.28;;
20545;SDS011;10431;50.228;9.112;2023-04-03T20:18:31;7.30;;;2.20;;
20545;SDS011;10431;50.228;9.112;2023-04-03T20:20:59;6.80;;;2.33;;
20545;SDS011;10431;50.228;9.112;2023-04-03T20:23:28;11.38;;;2.10;;
20545;SDS011;10431;50.228;9.112;2023-04-03T20:25:55;8.40;;;1.98;;
20545;SDS011;10431;50.228;9.112;2023-04-03T20:28:23;5.68;;;2.15;;
20545;SDS011;10431;50.228;9.112;2023-04-03T20:30:50;5.75;;;2.35;;
20545;SDS011;10431;50.228;9.112;2023-04-03T20:33:19;5.72;;;2.30;;
20545;SDS011;10431;50.228;9.112;2023-04-03T20:35:47;5.10;;;2.00;;
20545;SDS011;10431;50.228;9.112;2023-04-03T20:38:14;5.40;;;2.20;;
20545;SDS011;10431;50.228;9.112;2023-04-03T20:40:41;4.38;;;2.45;;
20545;SDS011;10431;50.228;9.112;2023-04-03T20:43:07;5.53;;;2.10;;
20545;SDS011;10431;50.228;9.112;2023-04-03T20:45:34;6.17;;;2.10;;
20545;SDS011;10431;50.228;9.112;2023-04-03T20:48:00;6.65;;;2.10;;
20545;SDS011;10431;50.228;9.112;2023-04-03T20:50:28;5.80;;;2.00;;
20545;SDS011;10431;50.228;9.112;2023-04-03T20:52:55;2.78;;;1.80;;
20545;SDS011;10431;50.228;9.112;2023-04-03T20:55:22;4.88;;;2.15;;
20545;SDS011;10431;50.228;9.112;2023-04-03T20:57:49;3.30;;;1.83;;
20545;SDS011;10431;50.228;9.112;2023-04-03T21:00:15;5.93;;;2.10;;
20545;SDS011;10431;50.228;9.112;2023-04-03T21:02:43;4.30;;;2.00;;
20545;SDS011;10431;50.228;9.112;2023-04-03T21:05:10;6.63;;;2.30;;
20545;SDS011;10431;50.228;9.112;2023-04-03T21:19:29;4.85;;;1.70;;
20545;SDS011;10431;50.228;9.112;2023-04-03T21:21:58;3.22;;;1.85;;
20545;SDS011;10431;50.228;9.112;2023-04-03T21:24:25;3.42;;;2.00;;
20545;SDS011;10431;50.228;9.112;2023-04-03T21:26:51;3.33;;;1.88;;
20545;SDS011;10431;50.228;9.112;2023-04-03T21:29:18;2.15;;;1.50;;
20545;SDS011;10431;50.228;9.112;2023-04-03T21:34:16;6.35;;;1.88;;
20545;SDS011;10431;50.228;9.112;2023-04-03T21:36:44;5.53;;;1.77;;
20545;SDS011;10431;50.228;9.112;2023-04-03T21:39:10;4.30;;;1.52;;
20545;SDS011;10431;50.228;9.112;2023-04-03T21:41:37;2.95;;;1.73;;
20545;SDS011;10431;50.228;9.112;2023-04-03T21:44:03;3.33;;;1.80;;
20545;SDS011;10431;50.228;9.112;2023-04-03T21:46:29;2.80;;;2.10;;
20545;SDS011;10431;50.228;9.112;2023-04-03T21:48:56;3.10;;;1.92;;
20545;SDS011;10431;50.228;9.112;2023-04-03T21:51:23;3.42;;;1.90;;
20545;SDS011;10431;50.228;9.112;2023-04-03T21:53:52;2.45;;;1.52;;
20545;SDS011;10431;50.228;9.112;2023-04-03T21:56:19;2.95;;;1.73;;
20545;SDS011;10431;50.228;9.112;2023-04-03T21:58:51;2.85;;;1.92;;
20545;SDS011;10431;50.228;9.112;2023-04-03T22:01:18;3.10;;;1.77;;
20545;SDS011;10431;50.228;9.112;2023-04-03T22:03:45;4.40;;;2.00;;
20545;SDS011;10431;50.228;9.112;2023-04-03T22:06:12;3.25;;;1.77;;
20545;SDS011;10431;50.228;9.112;2023-04-03T22:08:41;3.65;;;1.92;;
20545;SDS011;10431;50.228;9.112;2023-04-03T22:11:08;2.53;;;1.63;;
20545;SDS011;10431;50.228;9.112;2023-04-03T22:13:37;3.78;;;1.80;;
20545;SDS011;10431;50.228;9.112;2023-04-03T22:16:03;3.90;;;1.90;;
20545;SDS011;10431;50.228;9.112;2023-04-03T22:18:30;3.65;;;1.80;;
20545;SDS011;10431;50.228;9.112;2023-04-03T22:20:57;3.83;;;1.98;;
20545;SDS011;10431;50.228;9.112;2023-04-03T22:23:23;3.53;;;1.98;;
20545;SDS011;10431;50.228;9.112;2023-04-03T22:26:10;5.67;;;1.87;;
20545;SDS011;10431;50.228;9.112;2023-04-03T22:28:38;2.77;;;1.50;;
20545;SDS011;10431;50.228;9.112;2023-04-03T22:31:09;3.13;;;2.05;;
20545;SDS011;10431;50.228;9.112;2023-04-03T22:33:36;4.15;;;1.83;;
20545;SDS011;10431;50.228;9.112;2023-04-03T22:36:03;3.20;;;1.80;;
20545;SDS011;10431;50.228;9.112;2023-04-03T22:38:30;2.90;;;1.85;;
20545;SDS011;10431;50.228;9.112;2023-04-03T22:40:57;4.15;;;1.77;;
20545;SDS011;10431;50.228;9.112;2023-04-03T22:43:29;3.35;;;1.73;;
20545;SDS011;10431;50.228;9.112;2023-04-03T22:45:58;2.83;;;1.65;;
20545;SDS011;10431;50.228;9.112;2023-04-03T22:48:25;2.70;;;1.60;;
20545;SDS011;10431;50.228;9.112;2023-04-03T22:50:51;3.67;;;1.80;;
20545;SDS011;10431;50.228;9.112;2023-04-03T22:53:18;2.38;;;1.83;;
20545;SDS011;10431;50.228;9.112;2023-04-03T22:55:57;3.50;;;1.58;;
20545;SDS011;10431;50.228;9.112;2023-04-03T22:58:25;2.13;;;1.60;;
20545;SDS011;10431;50.228;9.112;2023-04-03T23:00:52;3.22;;;1.60;;
20545;SDS011;10431;50.228;9.112;2023-04-03T23:03:20;2.33;;;1.60;;
20545;SDS011;10431;50.228;9.112;2023-04-03T23:05:48;4.28;;;1.60;;
20545;SDS011;10431;50.228;9.112;2023-04-03T23:08:16;2.58;;;1.58;;
20545;SDS011;10431;50.228;9.112;2023-04-03T23:10:43;4.32;;;1.90;;
20545;SDS011;10431;50.228;9.112;2023-04-03T23:13:10;2.20;;;1.40;;
20545;SDS011;10431;50.228;9.112;2023-04-03T23:15:36;2.60;;;1.70;;
20545;SDS011;10431;50.228;9.112;2023-04-03T23:18:02;3.28;;;1.70;;
20545;SDS011;10431;50.228;9.112;2023-04-03T23:20:29;2.22;;;1.50;;
20545;SDS011;10431;50.228;9.112;2023-04-03T23:22:55;3.13;;;1.83;;
20545;SDS011;10431;50.228;9.112;2023-04-03T23:25:21;1.83;;;1.50;;
20545;SDS011;10431;50.228;9.112;2023-04-03T23:27:51;2.83;;;1.52;;
20545;SDS011;10431;50.228;9.112;2023-04-03T23:30:18;3.50;;;1.58;;
20545;SDS011;10431;50.228;9.112;2023-04-03T23:32:45;2.08;;;1.67;;
20545;SDS011;10431;50.228;9.112;2023-04-03T23:35:12;2.97;;;1.70;;
20545;SDS011;10431;50.228;9.112;2023-04-03T23:37:39;1.75;;;1.30;;
20545;SDS011;10431;50.228;9.112;2023-04-03T23:40:05;2.38;;;1.70;;
20545;SDS011;10431;50.228;9.112;2023-04-03T23:42:32;2.38;;;1.70;;
20545;SDS011;10431;50.228;9.112;2023-04-03T23:44:59;1.60;;;1.50;;
20545;SDS011;10431;50.228;9.112;2023-04-03T23:47:25;3.92;;;1.85;;
20545;SDS011;10431;50.228;9.112;2023-04-03T23:49:51;2.22;;;1.63;;
20545;SDS011;10431;50.228;9.112;2023-04-03T23:52:18;2.22;;;1.50;;
20545;SDS011;10431;50.228;9.112;2023-04-03T23:54:44;1.60;;;1.48;;
20545;SDS011;10431;50.228;9.112;2023-04-03T23:57:11;2.25;;;1.70;;
20545;SDS011;10431;50.228;9.112;2023-04-03T23:59:37;1.95;;;1.30;;
